sensor_id;sensor_type;location;lat;lon;timestamp;P1;durP1;ratioP1;P2;durP2;ratioP2
9115;SDS011;4593;53.652;10.168;2023-10-09T00:00:31;3.17;;;2.40;;
9115;SDS011;4593;53.652;10.168;2023-10-09T00:03:03;2.20;;;2.07;;
9115;SDS011;4593;53.652;10.168;2023-10-09T00:05:32;4.67;;;2.17;;
9115;SDS011;4593;53.652;10.168;2023-10-09T00:08:16;2.90;;;2.13;;
9115;SDS011;4593;53.652;10.168;2023-10-09T00:10:44;1.90;;;1.80;;
9115;SDS011;4593;53.652;10.168;2023-10-09T00:13:25;4.43;;;2.77;;
9115;SDS011;4593;53.652;10.168;2023-10-09T00:15:56;2.30;;;2.10;;
9115;SDS011;4593;53.652;10.168;2023-10-09T00:18:26;6.50;;;2.77;;
9115;SDS011;4593;53.652;10.168;2023-10-09T00:20:58;2.33;;;2.13;;
9115;SDS011;4593;53.652;10.168;2023-10-09T00:23:40;3.30;;;2.50;;
9115;SDS011;4593;53.652;10.168;2023-10-09T00:26:07;3.10;;;2.30;;
9115;SDS011;4593;53.652;10.168;2023-10-09T00:28:37;4.13;;;2.40;;
9115;SDS011;4593;53.652;10.168;2023-10-09T00:31:06;2.73;;;2.27;;
9115;SDS011;4593;53.652;10.168;2023-10-09T00:33:33;3.00;;;2.20;;
9115;SDS011;4593;53.652;10.168;2023-10-09T00:36:03;3.03;;;2.23;;
9115;SDS011;4593;53.652;10.168;2023-10-09T00:38:36;3.20;;;2.03;;
9115;SDS011;4593;53.652;10.168;2023-10-09T00:41:05;2.13;;;1.93;;
9115;SDS011;4593;53.652;10.168;2023-10-09T00:43:33;3.63;;;2.30;;
9115;SDS011;4593;53.652;10.168;2023-10-09T00:46:01;2.63;;;2.43;;
9115;SDS011;4593;53.652;10.168;2023-10-09T00:48:29;3.00;;;2.10;;
9115;SDS011;4593;53.652;10.168;2023-10-09T00:50:59;4.23;;;2.30;;
9115;SDS011;4593;53.652;10.168;2023-10-09T00:53:26;2.17;;;1.97;;
9115;SDS011;4593;53.652;10.168;2023-10-09T00:56:01;2.73;;;2.53;;
9115;SDS011;4593;53.652;10.168;2023-10-09T00:58:49;7.13;;;2.50;;
9115;SDS011;4593;53.652;10.168;2023-10-09T01:01:39;2.90;;;2.20;;
9115;SDS011;4593;53.652;10.168;2023-10-09T01:04:21;2.00;;;1.90;;
9115;SDS011;4593;53.652;10.168;2023-10-09T01:06:54;3.10;;;2.67;;
9115;SDS011;4593;53.652;10.168;2023-10-09T01:09:49;2.33;;;2.10;;
9115;SDS011;4593;53.652;10.168;2023-10-09T01:12:18;3.63;;;2.40;;
9115;SDS011;4593;53.652;10.168;2023-10-09T01:14:44;2.73;;;2.30;;
9115;SDS011;4593;53.652;10.168;2023-10-09T01:17:10;3.67;;;2.03;;
9115;SDS011;4593;53.652;10.168;2023-10-09T01:19:37;4.33;;;2.13;;
9115;SDS011;4593;53.652;10.168;2023-10-09T01:22:02;2.23;;;2.03;;
9115;SDS011;4593;53.652;10.168;2023-10-09T01:24:38;3.50;;;2.20;;
9115;SDS011;4593;53.652;10.168;2023-10-09T01:27:04;2.30;;;2.10;;
9115;SDS011;4593;53.652;10.168;2023-10-09T01:29:37;4.87;;;2.70;;
9115;SDS011;4593;53.652;10.168;2023-10-09T01:32:06;2.60;;;2.40;;
9115;SDS011;4593;53.652;10.168;2023-10-09T01:34:34;3.43;;;2.17;;
9115;SDS011;4593;53.652;10.168;2023-10-09T01:40:02;2.37;;;2.17;;
9115;SDS011;4593;53.652;10.168;2023-10-09T01:42:52;2.40;;;2.20;;
9115;SDS011;4593;53.652;10.168;2023-10-09T01:45:18;2.40;;;2.20;;
9115;SDS011;4593;53.652;10.168;2023-10-09T01:47:43;3.93;;;2.10;;
9115;SDS011;4593;53.652;10.168;2023-10-09T01:50:16;3.40;;;2.40;;
9115;SDS011;4593;53.652;10.168;2023-10-09T01:52:49;2.83;;;2.20;;
9115;SDS011;4593;53.652;10.168;2023-10-09T01:55:18;2.00;;;1.90;;
9115;SDS011;4593;53.652;10.168;2023-10-09T01:58:05;4.30;;;2.43;;
9115;SDS011;4593;53.652;10.168;2023-10-09T02:00:42;4.13;;;2.87;;
9115;SDS011;4593;53.652;10.168;2023-10-09T02:03:13;4.97;;;2.80;;
9115;SDS011;4593;53.652;10.168;2023-10-09T02:05:38;3.87;;;2.40;;
9115;SDS011;4593;53.652;10.168;2023-10-09T02:08:04;2.70;;;2.20;;
9115;SDS011;4593;53.652;10.168;2023-10-09T02:10:31;4.13;;;2.33;;
9115;SDS011;4593;53.652;10.168;2023-10-09T02:13:04;3.43;;;2.47;;
9115;SDS011;4593;53.652;10.168;2023-10-09T02:15:37;2.37;;;2.17;;
9115;SDS011;4593;53.652;10.168;2023-10-09T02:18:17;3.10;;;2.43;;
9115;SDS011;4593;53.652;10.168;2023-10-09T02:20:50;4.57;;;2.37;;
9115;SDS011;4593;53.652;10.168;2023-10-09T02:23:37;2.40;;;2.20;;
9115;SDS011;4593;53.652;10.168;2023-10-09T02:26:09;5.53;;;2.67;;
9115;SDS011;4593;53.652;10.168;2023-10-09T02:28:43;4.23;;;2.20;;
9115;SDS011;4593;53.652;10.168;2023-10-09T02:31:10;2.90;;;2.37;;
9115;SDS011;4593;53.652;10.168;2023-10-09T02:33:36;2.63;;;2.30;;
9115;SDS011;4593;53.652;10.168;2023-10-09T02:36:05;3.70;;;2.47;;
9115;SDS011;4593;53.652;10.168;2023-10-09T02:38:32;2.50;;;2.30;;
9115;SDS011;4593;53.652;10.168;2023-10-09T02:41:02;2.30;;;2.10;;
9115;SDS011;4593;53.652;10.168;2023-10-09T02:43:28;3.37;;;2.53;;
9115;SDS011;4593;53.652;10.168;2023-10-09T02:46:11;2.27;;;2.07;;
9115;SDS011;4593;53.652;10.168;2023-10-09T02:48:52;2.40;;;2.10;;
9115;SDS011;4593;53.652;10.168;2023-10-09T02:51:21;5.17;;;2.30;;
9115;SDS011;4593;53.652;10.168;2023-10-09T02:54:03;3.17;;;2.43;;
9115;SDS011;4593;53.652;10.168;2023-10-09T02:56:52;3.37;;;2.77;;
9115;SDS011;4593;53.652;10.168;2023-10-09T02:59:33;2.50;;;2.30;;
9115;SDS011;4593;53.652;10.168;2023-10-09T03:01:59;5.67;;;2.60;;
9115;SDS011;4593;53.652;10.168;2023-10-09T03:04:26;7.80;;;2.17;;
9115;SDS011;4593;53.652;10.168;2023-10-09T03:06:56;2.60;;;2.13;;
9115;SDS011;4593;53.652;10.168;2023-10-09T03:09:22;5.77;;;2.40;;
9115;SDS011;4593;53.652;10.168;2023-10-09T03:11:56;3.87;;;2.70;;
9115;SDS011;4593;53.652;10.168;2023-10-09T03:14:35;3.23;;;2.00;;
9115;SDS011;4593;53.652;10.168;2023-10-09T03:17:03;2.87;;;2.50;;
9115;SDS011;4593;53.652;10.168;2023-10-09T03:19:31;3.20;;;2.47;;
9115;SDS011;4593;53.652;10.168;2023-10-09T03:22:02;4.13;;;2.40;;
9115;SDS011;4593;53.652;10.168;2023-10-09T03:24:28;2.37;;;2.17;;
9115;SDS011;4593;53.652;10.168;2023-10-09T03:26:57;3.57;;;2.30;;
9115;SDS011;4593;53.652;10.168;2023-10-09T03:29:23;2.00;;;1.90;;
9115;SDS011;4593;53.652;10.168;2023-10-09T03:31:49;2.40;;;2.20;;
9115;SDS011;4593;53.652;10.168;2023-10-09T03:34:16;2.83;;;2.40;;
9115;SDS011;4593;53.652;10.168;2023-10-09T03:36:43;5.73;;;2.50;;
9115;SDS011;4593;53.652;10.168;2023-10-09T03:39:13;2.20;;;2.00;;
9115;SDS011;4593;53.652;10.168;2023-10-09T03:41:57;3.07;;;2.47;;
9115;SDS011;4593;53.652;10.168;2023-10-09T03:44:23;2.43;;;2.23;;
9115;SDS011;4593;53.652;10.168;2023-10-09T03:46:53;2.17;;;2.00;;
9115;SDS011;4593;53.652;10.168;2023-10-09T03:49:19;2.23;;;2.10;;
9115;SDS011;4593;53.652;10.168;2023-10-09T03:51:48;3.60;;;2.20;;
9115;SDS011;4593;53.652;10.168;2023-10-09T03:54:14;2.47;;;2.10;;
9115;SDS011;4593;53.652;10.168;2023-10-09T03:56:40;6.70;;;2.33;;
9115;SDS011;4593;53.652;10.168;2023-10-09T03:59:06;2.67;;;2.30;;
9115;SDS011;4593;53.652;10.168;2023-10-09T04:01:35;2.53;;;2.03;;
9115;SDS011;4593;53.652;10.168;2023-10-09T04:04:05;6.87;;;2.90;;
9115;SDS011;4593;53.652;10.168;2023-10-09T04:06:35;2.30;;;2.00;;
9115;SDS011;4593;53.652;10.168;2023-10-09T04:09:08;2.83;;;2.20;;
9115;SDS011;4593;53.652;10.168;2023-10-09T04:11:47;4.50;;;2.57;;
9115;SDS011;4593;53.652;10.168;2023-10-09T04:14:22;5.17;;;2.60;;
9115;SDS011;4593;53.652;10.168;2023-10-09T04:17:00;2.93;;;2.27;;
9115;SDS011;4593;53.652;10.168;2023-10-09T04:19:52;2.73;;;2.30;;
9115;SDS011;4593;53.652;10.168;2023-10-09T04:22:36;2.77;;;2.20;;
9115;SDS011;4593;53.652;10.168;2023-10-09T04:25:07;2.27;;;2.07;;
9115;SDS011;4593;53.652;10.168;2023-10-09T04:27:42;4.10;;;2.30;;
9115;SDS011;4593;53.652;10.168;2023-10-09T04:30:09;4.87;;;2.30;;
9115;SDS011;4593;53.652;10.168;2023-10-09T04:32:40;2.40;;;2.20;;
9115;SDS011;4593;53.652;10.168;2023-10-09T04:35:09;2.50;;;2.30;;
9115;SDS011;4593;53.652;10.168;2023-10-09T04:37:47;2.63;;;2.20;;
9115;SDS011;4593;53.652;10.168;2023-10-09T04:40:31;4.77;;;2.50;;
9115;SDS011;4593;53.652;10.168;2023-10-09T04:43:06;2.97;;;2.10;;
9115;SDS011;4593;53.652;10.168;2023-10-09T04:45:37;2.70;;;1.90;;
9115;SDS011;4593;53.652;10.168;2023-10-09T04:48:26;2.67;;;2.47;;
9115;SDS011;4593;53.652;10.168;2023-10-09T04:51:00;3.87;;;2.17;;
9115;SDS011;4593;53.652;10.168;2023-10-09T04:53:44;2.27;;;2.00;;
9115;SDS011;4593;53.652;10.168;2023-10-09T04:56:13;2.60;;;2.40;;
9115;SDS011;4593;53.652;10.168;2023-10-09T04:58:40;2.40;;;2.20;;
9115;SDS011;4593;53.652;10.168;2023-10-09T05:01:08;2.47;;;2.27;;
9115;SDS011;4593;53.652;10.168;2023-10-09T05:03:59;2.70;;;2.20;;
9115;SDS011;4593;53.652;10.168;2023-10-09T05:06:29;2.23;;;2.03;;
9115;SDS011;4593;53.652;10.168;2023-10-09T05:09:13;6.13;;;2.57;;
9115;SDS011;4593;53.652;10.168;2023-10-09T05:11:40;3.00;;;2.53;;
9115;SDS011;4593;53.652;10.168;2023-10-09T05:14:17;1.93;;;1.83;;
9115;SDS011;4593;53.652;10.168;2023-10-09T05:17:07;5.50;;;2.27;;
9115;SDS011;4593;53.652;10.168;2023-10-09T05:19:40;2.23;;;2.00;;
9115;SDS011;4593;53.652;10.168;2023-10-09T05:22:20;2.57;;;2.30;;
9115;SDS011;4593;53.652;10.168;2023-10-09T05:24:56;2.70;;;2.27;;
9115;SDS011;4593;53.652;10.168;2023-10-09T05:27:23;2.47;;;2.27;;
9115;SDS011;4593;53.652;10.168;2023-10-09T05:30:07;2.80;;;2.30;;
9115;SDS011;4593;53.652;10.168;2023-10-09T05:32:52;2.73;;;2.20;;
9115;SDS011;4593;53.652;10.168;2023-10-09T05:35:23;3.33;;;2.10;;
9115;SDS011;4593;53.652;10.168;2023-10-09T05:38:05;2.80;;;2.50;;
9115;SDS011;4593;53.652;10.168;2023-10-09T05:40:48;5.80;;;2.40;;
9115;SDS011;4593;53.652;10.168;2023-10-09T05:43:19;3.10;;;2.17;;
9115;SDS011;4593;53.652;10.168;2023-10-09T05:46:04;2.63;;;2.43;;
9115;SDS011;4593;53.652;10.168;2023-10-09T05:48:34;2.20;;;2.00;;
9115;SDS011;4593;53.652;10.168;2023-10-09T05:51:02;2.63;;;2.13;;
9115;SDS011;4593;53.652;10.168;2023-10-09T05:53:34;2.57;;;2.00;;
9115;SDS011;4593;53.652;10.168;2023-10-09T05:56:20;3.33;;;2.20;;
9115;SDS011;4593;53.652;10.168;2023-10-09T05:58:57;2.80;;;2.13;;
9115;SDS011;4593;53.652;10.168;2023-10-09T06:01:56;3.43;;;2.60;;
9115;SDS011;4593;53.652;10.168;2023-10-09T06:04:28;2.57;;;2.10;;
9115;SDS011;4593;53.652;10.168;2023-10-09T06:07:19;3.67;;;2.30;;
9115;SDS011;4593;53.652;10.168;2023-10-09T06:09:48;2.53;;;2.33;;
9115;SDS011;4593;53.652;10.168;2023-10-09T06:12:21;2.53;;;2.10;;
9115;SDS011;4593;53.652;10.168;2023-10-09T06:15:14;2.60;;;2.07;;
9115;SDS011;4593;53.652;10.168;2023-10-09T06:17:58;2.57;;;1.97;;
9115;SDS011;4593;53.652;10.168;2023-10-09T06:20:47;3.83;;;2.23;;
9115;SDS011;4593;53.652;10.168;2023-10-09T06:23:33;3.40;;;2.37;;
9115;SDS011;4593;53.652;10.168;2023-10-09T06:26:28;2.30;;;2.10;;
9115;SDS011;4593;53.652;10.168;2023-10-09T06:28:58;3.57;;;2.23;;
9115;SDS011;4593;53.652;10.168;2023-10-09T06:31:42;3.27;;;2.30;;
9115;SDS011;4593;53.652;10.168;2023-10-09T06:34:26;3.23;;;2.20;;
9115;SDS011;4593;53.652;10.168;2023-10-09T06:37:01;2.40;;;2.20;;
9115;SDS011;4593;53.652;10.168;2023-10-09T06:39:54;2.03;;;1.90;;
9115;SDS011;4593;53.652;10.168;2023-10-09T06:42:23;2.70;;;2.27;;
9115;SDS011;4593;53.652;10.168;2023-10-09T06:47:30;2.33;;;2.13;;
9115;SDS011;4593;53.652;10.168;2023-10-09T06:50:06;2.73;;;2.43;;
9115;SDS011;4593;53.652;10.168;2023-10-09T06:52:49;2.27;;;2.07;;
9115;SDS011;4593;53.652;10.168;2023-10-09T06:55:44;2.73;;;2.20;;
9115;SDS011;4593;53.652;10.168;2023-10-09T06:58:17;2.37;;;2.00;;
9115;SDS011;4593;53.652;10.168;2023-10-09T07:00:53;5.00;;;2.37;;
9115;SDS011;4593;53.652;10.168;2023-10-09T07:03:23;2.73;;;2.13;;
9115;SDS011;4593;53.652;10.168;2023-10-09T07:06:07;3.27;;;2.10;;
9115;SDS011;4593;53.652;10.168;2023-10-09T07:08:52;8.80;;;2.40;;
9115;SDS011;4593;53.652;10.168;2023-10-09T07:11:36;2.87;;;2.40;;
9115;SDS011;4593;53.652;10.168;2023-10-09T07:14:05;3.17;;;2.60;;
9115;SDS011;4593;53.652;10.168;2023-10-09T07:16:32;5.00;;;2.67;;
9115;SDS011;4593;53.652;10.168;2023-10-09T07:19:04;2.33;;;2.13;;
9115;SDS011;4593;53.652;10.168;2023-10-09T07:21:56;6.10;;;2.53;;
9115;SDS011;4593;53.652;10.168;2023-10-09T07:24:27;5.27;;;2.50;;
9115;SDS011;4593;53.652;10.168;2023-10-09T07:27:06;2.30;;;2.10;;
9115;SDS011;4593;53.652;10.168;2023-10-09T07:29:39;3.47;;;2.40;;
9115;SDS011;4593;53.652;10.168;2023-10-09T07:32:14;5.07;;;2.20;;
9115;SDS011;4593;53.652;10.168;2023-10-09T07:34:52;2.70;;;2.50;;
9115;SDS011;4593;53.652;10.168;2023-10-09T07:37:25;2.40;;;2.20;;
9115;SDS011;4593;53.652;10.168;2023-10-09T07:40:03;5.63;;;2.80;;
9115;SDS011;4593;53.652;10.168;2023-10-09T07:42:33;4.27;;;2.43;;
9115;SDS011;4593;53.652;10.168;2023-10-09T07:45:10;4.27;;;2.90;;
9115;SDS011;4593;53.652;10.168;2023-10-09T07:47:47;3.23;;;2.60;;
9115;SDS011;4593;53.652;10.168;2023-10-09T07:50:27;3.17;;;2.87;;
9115;SDS011;4593;53.652;10.168;2023-10-09T07:53:08;2.83;;;2.50;;
9115;SDS011;4593;53.652;10.168;2023-10-09T07:55:43;3.43;;;3.13;;
9115;SDS011;4593;53.652;10.168;2023-10-09T07:58:30;3.60;;;2.67;;
9115;SDS011;4593;53.652;10.168;2023-10-09T08:00:58;4.67;;;2.90;;
9115;SDS011;4593;53.652;10.168;2023-10-09T08:03:35;4.93;;;3.00;;
9115;SDS011;4593;53.652;10.168;2023-10-09T08:06:02;3.00;;;2.70;;
9115;SDS011;4593;53.652;10.168;2023-10-09T08:08:46;4.87;;;2.83;;
9115;SDS011;4593;53.652;10.168;2023-10-09T08:11:26;3.30;;;2.60;;
9115;SDS011;4593;53.652;10.168;2023-10-09T08:14:10;3.80;;;2.80;;
9115;SDS011;4593;53.652;10.168;2023-10-09T08:16:56;3.40;;;2.90;;
9115;SDS011;4593;53.652;10.168;2023-10-09T08:19:40;4.23;;;3.10;;
9115;SDS011;4593;53.652;10.168;2023-10-09T08:22:28;5.27;;;2.93;;
9115;SDS011;4593;53.652;10.168;2023-10-09T08:24:55;2.87;;;2.57;;
9115;SDS011;4593;53.652;10.168;2023-10-09T08:29:55;3.63;;;2.63;;
9115;SDS011;4593;53.652;10.168;2023-10-09T08:32:40;2.97;;;2.53;;
9115;SDS011;4593;53.652;10.168;2023-10-09T08:35:08;3.33;;;2.80;;
9115;SDS011;4593;53.652;10.168;2023-10-09T08:37:57;4.50;;;3.17;;
9115;SDS011;4593;53.652;10.168;2023-10-09T08:40:31;4.20;;;3.10;;
9115;SDS011;4593;53.652;10.168;2023-10-09T08:43:09;3.40;;;2.87;;
9115;SDS011;4593;53.652;10.168;2023-10-09T08:45:40;3.00;;;2.70;;
9115;SDS011;4593;53.652;10.168;2023-10-09T08:48:10;4.33;;;3.10;;
9115;SDS011;4593;53.652;10.168;2023-10-09T08:50:46;2.83;;;2.50;;
9115;SDS011;4593;53.652;10.168;2023-10-09T08:53:13;3.73;;;2.90;;
9115;SDS011;4593;53.652;10.168;2023-10-09T08:55:39;3.00;;;2.70;;
9115;SDS011;4593;53.652;10.168;2023-10-09T08:58:06;2.70;;;2.50;;
9115;SDS011;4593;53.652;10.168;2023-10-09T09:00:42;7.63;;;2.90;;
9115;SDS011;4593;53.652;10.168;2023-10-09T09:03:11;4.80;;;3.10;;
9115;SDS011;4593;53.652;10.168;2023-10-09T09:05:40;3.63;;;2.70;;
9115;SDS011;4593;53.652;10.168;2023-10-09T09:08:20;3.37;;;2.47;;
9115;SDS011;4593;53.652;10.168;2023-10-09T09:11:00;4.37;;;2.50;;
9115;SDS011;4593;53.652;10.168;2023-10-09T09:14:02;3.20;;;2.50;;
9115;SDS011;4593;53.652;10.168;2023-10-09T09:16:47;2.73;;;2.53;;
9115;SDS011;4593;53.652;10.168;2023-10-09T09:19:17;3.43;;;2.47;;
9115;SDS011;4593;53.652;10.168;2023-10-09T09:21:43;4.60;;;2.50;;
9115;SDS011;4593;53.652;10.168;2023-10-09T09:24:21;2.80;;;2.60;;
9115;SDS011;4593;53.652;10.168;2023-10-09T09:26:54;3.50;;;2.57;;
9115;SDS011;4593;53.652;10.168;2023-10-09T09:32:02;3.27;;;2.33;;
9115;SDS011;4593;53.652;10.168;2023-10-09T09:34:49;2.50;;;2.30;;
9115;SDS011;4593;53.652;10.168;2023-10-09T09:37:30;2.33;;;2.13;;
9115;SDS011;4593;53.652;10.168;2023-10-09T09:40:15;3.07;;;2.30;;
9115;SDS011;4593;53.652;10.168;2023-10-09T09:42:54;3.07;;;2.50;;
9115;SDS011;4593;53.652;10.168;2023-10-09T09:45:36;2.57;;;2.13;;
9115;SDS011;4593;53.652;10.168;2023-10-09T09:48:03;2.53;;;2.33;;
9115;SDS011;4593;53.652;10.168;2023-10-09T09:50:36;2.50;;;2.23;;
9115;SDS011;4593;53.652;10.168;2023-10-09T09:53:09;2.57;;;2.37;;
9115;SDS011;4593;53.652;10.168;2023-10-09T09:55:51;3.00;;;2.70;;
9115;SDS011;4593;53.652;10.168;2023-10-09T09:58:22;2.30;;;2.10;;
9115;SDS011;4593;53.652;10.168;2023-10-09T10:01:06;3.10;;;2.70;;
9115;SDS011;4593;53.652;10.168;2023-10-09T10:03:42;3.43;;;2.40;;
9115;SDS011;4593;53.652;10.168;2023-10-09T10:06:12;2.80;;;2.20;;
9115;SDS011;4593;53.652;10.168;2023-10-09T10:08:44;2.63;;;2.43;;
9115;SDS011;4593;53.652;10.168;2023-10-09T10:14:09;2.37;;;2.17;;
9115;SDS011;4593;53.652;10.168;2023-10-09T10:17:03;3.97;;;2.20;;
9115;SDS011;4593;53.652;10.168;2023-10-09T10:22:29;2.20;;;2.00;;
9115;SDS011;4593;53.652;10.168;2023-10-09T10:24:58;2.40;;;2.20;;
9115;SDS011;4593;53.652;10.168;2023-10-09T10:27:27;2.60;;;2.40;;
9115;SDS011;4593;53.652;10.168;2023-10-09T10:32:55;2.50;;;2.30;;
9115;SDS011;4593;53.652;10.168;2023-10-09T10:35:34;2.17;;;2.07;;
9115;SDS011;4593;53.652;10.168;2023-10-09T10:41:15;4.17;;;2.30;;
9115;SDS011;4593;53.652;10.168;2023-10-09T10:43:45;2.30;;;2.03;;
9115;SDS011;4593;53.652;10.168;2023-10-09T10:46:14;2.40;;;2.20;;
9115;SDS011;4593;53.652;10.168;2023-10-09T10:48:49;2.30;;;2.10;;
9115;SDS011;4593;53.652;10.168;2023-10-09T10:51:28;2.30;;;2.10;;
9115;SDS011;4593;53.652;10.168;2023-10-09T10:54:02;2.00;;;1.90;;
9115;SDS011;4593;53.652;10.168;2023-10-09T10:56:48;3.47;;;1.80;;
9115;SDS011;4593;53.652;10.168;2023-10-09T10:59:14;2.10;;;2.00;;
9115;SDS011;4593;53.652;10.168;2023-10-09T11:01:47;3.60;;;2.00;;
9115;SDS011;4593;53.652;10.168;2023-10-09T11:04:26;2.17;;;1.97;;
9115;SDS011;4593;53.652;10.168;2023-10-09T11:06:59;2.57;;;2.07;;
9115;SDS011;4593;53.652;10.168;2023-10-09T11:09:46;2.20;;;2.00;;
9115;SDS011;4593;53.652;10.168;2023-10-09T11:15:05;2.00;;;1.90;;
9115;SDS011;4593;53.652;10.168;2023-10-09T11:17:32;1.90;;;1.80;;
9115;SDS011;4593;53.652;10.168;2023-10-09T11:20:01;2.23;;;2.07;;
9115;SDS011;4593;53.652;10.168;2023-10-09T11:22:51;2.10;;;2.00;;
9115;SDS011;4593;53.652;10.168;2023-10-09T11:25:36;2.00;;;1.90;;
9115;SDS011;4593;53.652;10.168;2023-10-09T11:30:54;2.47;;;1.90;;
9115;SDS011;4593;53.652;10.168;2023-10-09T11:33:48;2.07;;;1.80;;
9115;SDS011;4593;53.652;10.168;2023-10-09T11:36:16;1.87;;;1.77;;
9115;SDS011;4593;53.652;10.168;2023-10-09T11:38:56;2.50;;;1.90;;
9115;SDS011;4593;53.652;10.168;2023-10-09T11:41:42;1.83;;;1.70;;
9115;SDS011;4593;53.652;10.168;2023-10-09T11:44:09;1.60;;;1.50;;
9115;SDS011;4593;53.652;10.168;2023-10-09T11:46:58;1.90;;;1.80;;
9115;SDS011;4593;53.652;10.168;2023-10-09T11:49:46;1.93;;;1.83;;
9115;SDS011;4593;53.652;10.168;2023-10-09T11:52:35;1.90;;;1.80;;
9115;SDS011;4593;53.652;10.168;2023-10-09T11:55:04;1.90;;;1.80;;
9115;SDS011;4593;53.652;10.168;2023-10-09T11:57:40;1.73;;;1.63;;
9115;SDS011;4593;53.652;10.168;2023-10-09T12:00:06;1.70;;;1.60;;
9115;SDS011;4593;53.652;10.168;2023-10-09T12:02:54;1.80;;;1.70;;
9115;SDS011;4593;53.652;10.168;2023-10-09T12:05:20;1.80;;;1.70;;
9115;SDS011;4593;53.652;10.168;2023-10-09T12:07:47;1.67;;;1.57;;
9115;SDS011;4593;53.652;10.168;2023-10-09T12:10:20;1.77;;;1.67;;
9115;SDS011;4593;53.652;10.168;2023-10-09T12:12:51;1.63;;;1.53;;
9115;SDS011;4593;53.652;10.168;2023-10-09T12:15:17;1.57;;;1.47;;
9115;SDS011;4593;53.652;10.168;2023-10-09T12:17:44;1.70;;;1.60;;
9115;SDS011;4593;53.652;10.168;2023-10-09T12:20:12;1.80;;;1.70;;
9115;SDS011;4593;53.652;10.168;2023-10-09T12:23:00;1.70;;;1.60;;
9115;SDS011;4593;53.652;10.168;2023-10-09T12:25:30;1.60;;;1.50;;
9115;SDS011;4593;53.652;10.168;2023-10-09T12:27:57;1.60;;;1.50;;
9115;SDS011;4593;53.652;10.168;2023-10-09T12:30:23;1.50;;;1.40;;
9115;SDS011;4593;53.652;10.168;2023-10-09T12:32:55;1.77;;;1.67;;
9115;SDS011;4593;53.652;10.168;2023-10-09T12:35:25;1.60;;;1.50;;
9115;SDS011;4593;53.652;10.168;2023-10-09T12:37:53;1.93;;;1.53;;
9115;SDS011;4593;53.652;10.168;2023-10-09T12:40:20;1.70;;;1.60;;
9115;SDS011;4593;53.652;10.168;2023-10-09T12:42:52;1.40;;;1.40;;
9115;SDS011;4593;53.652;10.168;2023-10-09T12:45:18;1.80;;;1.70;;
9115;SDS011;4593;53.652;10.168;2023-10-09T12:47:45;1.67;;;1.57;;
9115;SDS011;4593;53.652;10.168;2023-10-09T12:50:12;1.90;;;1.80;;
9115;SDS011;4593;53.652;10.168;2023-10-09T12:52:39;1.80;;;1.70;;
9115;SDS011;4593;53.652;10.168;2023-10-09T12:55:05;2.07;;;1.77;;
9115;SDS011;4593;53.652;10.168;2023-10-09T12:57:32;1.60;;;1.50;;
9115;SDS011;4593;53.652;10.168;2023-10-09T13:00:01;1.70;;;1.60;;
9115;SDS011;4593;53.652;10.168;2023-10-09T13:02:36;1.80;;;1.70;;
9115;SDS011;4593;53.652;10.168;2023-10-09T13:05:01;1.70;;;1.60;;
9115;SDS011;4593;53.652;10.168;2023-10-09T13:07:30;1.87;;;1.73;;
9115;SDS011;4593;53.652;10.168;2023-10-09T13:09:55;2.40;;;1.60;;
9115;SDS011;4593;53.652;10.168;2023-10-09T13:12:34;1.90;;;1.80;;
9115;SDS011;4593;53.652;10.168;2023-10-09T13:15:06;1.93;;;1.80;;
9115;SDS011;4593;53.652;10.168;2023-10-09T13:17:34;1.80;;;1.70;;
9115;SDS011;4593;53.652;10.168;2023-10-09T13:20:02;1.80;;;1.70;;
9115;SDS011;4593;53.652;10.168;2023-10-09T13:22:29;1.70;;;1.60;;
9115;SDS011;4593;53.652;10.168;2023-10-09T13:24:55;1.70;;;1.60;;
9115;SDS011;4593;53.652;10.168;2023-10-09T13:27:29;2.07;;;1.90;;
9115;SDS011;4593;53.652;10.168;2023-10-09T13:29:59;1.70;;;1.60;;
9115;SDS011;4593;53.652;10.168;2023-10-09T13:32:31;1.80;;;1.70;;
9115;SDS011;4593;53.652;10.168;2023-10-09T13:35:04;2.03;;;1.90;;
9115;SDS011;4593;53.652;10.168;2023-10-09T13:37:31;1.73;;;1.63;;
9115;SDS011;4593;53.652;10.168;2023-10-09T13:40:05;1.60;;;1.50;;
9115;SDS011;4593;53.652;10.168;2023-10-09T13:42:34;1.80;;;1.70;;
9115;SDS011;4593;53.652;10.168;2023-10-09T13:45:02;1.73;;;1.63;;
9115;SDS011;4593;53.652;10.168;2023-10-09T13:47:32;1.80;;;1.70;;
9115;SDS011;4593;53.652;10.168;2023-10-09T13:49:58;1.80;;;1.70;;
9115;SDS011;4593;53.652;10.168;2023-10-09T13:52:25;1.70;;;1.60;;
9115;SDS011;4593;53.652;10.168;2023-10-09T13:54:52;1.67;;;1.57;;
9115;SDS011;4593;53.652;10.168;2023-10-09T13:57:18;1.60;;;1.50;;
9115;SDS011;4593;53.652;10.168;2023-10-09T13:59:47;1.60;;;1.50;;
9115;SDS011;4593;53.652;10.168;2023-10-09T14:02:16;1.80;;;1.70;;
9115;SDS011;4593;53.652;10.168;2023-10-09T14:04:43;1.77;;;1.67;;
9115;SDS011;4593;53.652;10.168;2023-10-09T14:07:10;1.70;;;1.60;;
9115;SDS011;4593;53.652;10.168;2023-10-09T14:09:35;1.63;;;1.53;;
9115;SDS011;4593;53.652;10.168;2023-10-09T14:12:10;1.60;;;1.50;;
9115;SDS011;4593;53.652;10.168;2023-10-09T14:14:39;1.73;;;1.63;;
9115;SDS011;4593;53.652;10.168;2023-10-09T14:17:12;1.80;;;1.70;;
9115;SDS011;4593;53.652;10.168;2023-10-09T14:19:50;1.70;;;1.60;;
9115;SDS011;4593;53.652;10.168;2023-10-09T14:22:17;1.90;;;1.80;;
9115;SDS011;4593;53.652;10.168;2023-10-09T14:24:45;1.77;;;1.67;;
9115;SDS011;4593;53.652;10.168;2023-10-09T14:27:12;1.70;;;1.60;;
9115;SDS011;4593;53.652;10.168;2023-10-09T14:29:48;1.77;;;1.67;;
9115;SDS011;4593;53.652;10.168;2023-10-09T14:32:15;2.20;;;2.00;;
9115;SDS011;4593;53.652;10.168;2023-10-09T14:34:43;2.17;;;2.00;;
9115;SDS011;4593;53.652;10.168;2023-10-09T14:37:16;2.20;;;2.00;;
9115;SDS011;4593;53.652;10.168;2023-10-09T14:39:44;2.00;;;1.90;;
9115;SDS011;4593;53.652;10.168;2023-10-09T14:42:16;2.53;;;2.10;;
9115;SDS011;4593;53.652;10.168;2023-10-09T14:44:43;2.53;;;2.03;;
9115;SDS011;4593;53.652;10.168;2023-10-09T14:47:13;3.13;;;2.33;;
9115;SDS011;4593;53.652;10.168;2023-10-09T14:49:39;2.40;;;2.20;;
9115;SDS011;4593;53.652;10.168;2023-10-09T14:52:12;2.10;;;2.00;;
9115;SDS011;4593;53.652;10.168;2023-10-09T14:54:45;2.40;;;2.20;;
9115;SDS011;4593;53.652;10.168;2023-10-09T14:57:11;2.77;;;2.30;;
9115;SDS011;4593;53.652;10.168;2023-10-09T14:59:38;2.27;;;2.07;;
9115;SDS011;4593;53.652;10.168;2023-10-09T15:02:04;2.43;;;2.23;;
9115;SDS011;4593;53.652;10.168;2023-10-09T15:04:31;2.20;;;2.03;;
9115;SDS011;4593;53.652;10.168;2023-10-09T15:07:00;2.30;;;2.10;;
9115;SDS011;4593;53.652;10.168;2023-10-09T15:09:26;2.40;;;2.20;;
9115;SDS011;4593;53.652;10.168;2023-10-09T15:11:56;2.10;;;2.00;;
9115;SDS011;4593;53.652;10.168;2023-10-09T15:14:22;3.43;;;2.20;;
9115;SDS011;4593;53.652;10.168;2023-10-09T15:16:48;2.50;;;2.30;;
9115;SDS011;4593;53.652;10.168;2023-10-09T15:19:15;2.87;;;2.67;;
9115;SDS011;4593;53.652;10.168;2023-10-09T15:21:41;2.77;;;2.57;;
9115;SDS011;4593;53.652;10.168;2023-10-09T15:24:11;2.70;;;2.50;;
9115;SDS011;4593;53.652;10.168;2023-10-09T15:26:46;2.40;;;2.20;;
9115;SDS011;4593;53.652;10.168;2023-10-09T15:29:19;3.20;;;2.50;;
9115;SDS011;4593;53.652;10.168;2023-10-09T15:31:48;2.60;;;2.40;;
9115;SDS011;4593;53.652;10.168;2023-10-09T15:34:15;2.40;;;2.20;;
9115;SDS011;4593;53.652;10.168;2023-10-09T15:36:43;2.80;;;2.60;;
9115;SDS011;4593;53.652;10.168;2023-10-09T15:39:15;2.33;;;2.13;;
9115;SDS011;4593;53.652;10.168;2023-10-09T15:41:44;2.93;;;2.10;;
9115;SDS011;4593;53.652;10.168;2023-10-09T15:44:11;2.60;;;2.40;;
9115;SDS011;4593;53.652;10.168;2023-10-09T15:46:38;2.53;;;2.33;;
9115;SDS011;4593;53.652;10.168;2023-10-09T15:49:04;2.90;;;2.63;;
9115;SDS011;4593;53.652;10.168;2023-10-09T15:51:34;3.10;;;2.67;;
9115;SDS011;4593;53.652;10.168;2023-10-09T15:54:00;2.90;;;2.23;;
9115;SDS011;4593;53.652;10.168;2023-10-09T15:56:26;3.17;;;2.87;;
9115;SDS011;4593;53.652;10.168;2023-10-09T15:58:52;2.93;;;2.67;;
9115;SDS011;4593;53.652;10.168;2023-10-09T16:01:19;2.60;;;2.40;;
9115;SDS011;4593;53.652;10.168;2023-10-09T16:03:45;2.50;;;2.30;;
9115;SDS011;4593;53.652;10.168;2023-10-09T16:06:15;2.40;;;2.20;;